createdAt,value
2022-07-29T00:01:04.160Z,16.41
2022-07-29T00:06:06.568Z,16.33
2022-07-29T00:11:08.659Z,16.27
2022-07-29T00:16:10.993Z,15.91
2022-07-29T00:21:13.102Z,16.17
2022-07-29T00:26:15.109Z,16.07
2022-07-29T00:31:17.225Z,16.08
2022-07-29T00:36:19.346Z,15.47
2022-07-29T00:41:21.806Z,15.70
2022-07-29T00:46:23.874Z,15.63
2022-07-29T00:51:27.193Z,15.55
2022-07-29T00:56:31.386Z,15.72
2022-07-29T01:01:33.426Z,15.53
2022-07-29T01:06:35.925Z,15.51
2022-07-29T01:11:38.138Z,15.36
2022-07-29T01:16:52.684Z,15.41
2022-07-29T01:21:59.852Z,15.17
2022-07-29T01:27:23.894Z,15.25
2022-07-29T01:32:31.054Z,15.15
2022-07-29T01:37:40.868Z,15.10
2022-07-29T01:42:56.161Z,15.24
2022-07-29T01:48:22.880Z,15.33
2022-07-29T01:53:37.984Z,15.27
2022-07-29T01:58:42.127Z,15.17
2022-07-29T02:03:45.535Z,15.23
2022-07-29T02:08:48.497Z,15.16
2022-07-29T02:13:50.938Z,15.17
2022-07-29T02:18:54.152Z,15.18
2022-07-29T02:23:57.298Z,15.28
2022-07-29T02:29:00.415Z,15.28
2022-07-29T02:34:08.365Z,15.34
2022-07-29T02:39:12.173Z,15.29
2022-07-29T02:44:17.784Z,15.41
2022-07-29T02:49:28.890Z,15.55
2022-07-29T02:54:53.227Z,15.56
2022-07-29T02:59:58.860Z,15.60
2022-07-29T03:05:02.077Z,15.55
2022-07-29T03:10:05.014Z,15.33
2022-07-29T03:15:13.516Z,15.48
2022-07-29T03:20:15.734Z,15.48
2022-07-29T03:25:19.700Z,15.82
2022-07-29T03:30:22.543Z,16.12
2022-07-29T03:35:24.710Z,16.57
2022-07-29T03:40:29.496Z,17.23
2022-07-29T03:45:32.251Z,17.83
2022-07-29T03:50:34.939Z,18.34
2022-07-29T03:55:46.752Z,18.79
2022-07-29T04:00:49.367Z,18.66
2022-07-29T04:06:07.901Z,18.79
2022-07-29T04:11:10.148Z,18.82
2022-07-29T04:16:12.254Z,18.54
2022-07-29T04:21:14.693Z,18.24
2022-07-29T04:26:19.502Z,18.10
2022-07-29T04:31:25.684Z,18.13
2022-07-29T04:36:29.378Z,18.29
2022-07-29T04:41:33.029Z,18.27
2022-07-29T04:46:38.698Z,17.97
2022-07-29T04:51:40.849Z,18.29
2022-07-29T04:56:42.993Z,18.77
2022-07-29T05:01:44.993Z,18.56
2022-07-29T05:06:47.048Z,18.98
2022-07-29T05:11:49.258Z,18.92
2022-07-29T05:16:52.137Z,19.31
2022-07-29T05:21:54.221Z,19.31
2022-07-29T05:26:56.378Z,19.68
2022-07-29T05:31:58.549Z,19.58
2022-07-29T05:37:00.552Z,19.79
2022-07-29T05:42:02.589Z,19.90
2022-07-29T05:47:04.721Z,19.62
2022-07-29T05:52:06.698Z,19.82
2022-07-29T05:57:09.060Z,19.75
2022-07-29T06:02:11.063Z,19.97
2022-07-29T06:07:13.170Z,20.03
2022-07-29T06:12:15.611Z,20.00
2022-07-29T06:17:18.246Z,20.26
2022-07-29T06:22:20.390Z,20.46
2022-07-29T06:27:22.542Z,20.45
2022-07-29T06:32:27.479Z,20.58
2022-07-29T06:37:29.504Z,20.54
2022-07-29T06:42:34.081Z,20.95
2022-07-29T06:47:36.285Z,20.60
2022-07-29T06:52:41.889Z,21.14
2022-07-29T06:57:44.053Z,21.01
2022-07-29T07:02:46.668Z,20.94
2022-07-29T07:07:49.878Z,21.45
2022-07-29T07:12:51.947Z,21.35
2022-07-29T07:17:55.627Z,21.28
2022-07-29T07:22:57.836Z,21.35
2022-07-29T07:28:00.117Z,21.75
2022-07-29T07:33:02.172Z,21.85
2022-07-29T07:38:04.217Z,21.65
2022-07-29T07:43:06.307Z,21.70
2022-07-29T07:48:11.275Z,22.16
2022-07-29T07:53:13.312Z,22.20
2022-07-29T07:58:15.592Z,22.05
2022-07-29T08:03:17.540Z,22.19
2022-07-29T08:08:19.541Z,22.51
2022-07-29T08:13:22.851Z,22.65
2022-07-29T08:18:26.080Z,22.57
2022-07-29T08:23:46.101Z,22.90
2022-07-29T08:28:51.870Z,22.48
2022-07-29T08:33:54.073Z,22.99
2022-07-29T08:38:56.298Z,22.90
2022-07-29T08:43:58.552Z,22.79
2022-07-29T08:49:00.619Z,23.06
2022-07-29T08:54:03.221Z,23.15
2022-07-29T08:59:06.553Z,23.46
2022-07-29T09:04:12.669Z,23.72
2022-07-29T09:09:15.740Z,24.11
2022-07-29T09:14:17.946Z,24.26
2022-07-29T09:19:27.236Z,24.34
2022-07-29T09:24:45.012Z,24.79
2022-07-29T09:29:47.850Z,25.45
2022-07-29T09:34:50.033Z,25.68
2022-07-29T09:39:53.565Z,25.69
2022-07-29T09:44:55.723Z,25.58
2022-07-29T09:50:00.217Z,25.80
2022-07-29T09:55:06.781Z,26.48
2022-07-29T10:00:15.750Z,25.97
2022-07-29T10:05:21.294Z,26.15
2022-07-29T10:10:31.727Z,26.95
2022-07-29T10:15:38.728Z,27.09
2022-07-29T10:20:41.376Z,26.94
2022-07-29T10:25:46.359Z,28.00
2022-07-29T10:30:51.568Z,28.27
2022-07-29T10:36:20.742Z,27.79
2022-07-29T10:41:44.230Z,27.95
2022-07-29T10:46:47.497Z,27.26
2022-07-29T10:51:58.915Z,26.56
2022-07-29T10:57:25.797Z,26.90
2022-07-29T11:02:49.404Z,27.20
2022-07-29T11:08:16.197Z,26.58
2022-07-29T11:13:44.689Z,27.55
2022-07-29T11:19:14.010Z,27.60
2022-07-29T11:24:29.103Z,26.84
2022-07-29T11:29:33.109Z,27.46
2022-07-29T11:34:42.530Z,27.82
2022-07-29T11:40:02.054Z,28.19
2022-07-29T11:45:43.140Z,27.96
2022-07-29T11:50:44.574Z,28.44
2022-07-29T11:55:56.307Z,28.01
2022-07-29T12:06:23.338Z,27.63
2022-07-29T12:07:02.432Z,27.80
2022-07-29T12:11:25.350Z,27.44
2022-07-29T12:16:38.383Z,27.37
2022-07-29T12:21:56.247Z,27.91
2022-07-29T12:27:00.749Z,28.14
2022-07-29T12:32:14.513Z,28.05
2022-07-29T12:37:17.404Z,27.87
2022-07-29T12:42:19.431Z,28.33
2022-07-29T12:47:21.784Z,27.54
2022-07-29T12:52:35.221Z,27.58
2022-07-29T12:57:48.264Z,27.61
2022-07-29T13:03:01.985Z,28.09
2022-07-29T13:08:20.256Z,27.83
2022-07-29T13:13:24.558Z,27.32
2022-07-29T13:18:36.426Z,27.93
2022-07-29T13:23:38.687Z,28.11
2022-07-29T13:28:41.067Z,28.29
2022-07-29T13:33:46.538Z,27.82
2022-07-29T13:38:48.820Z,26.84
2022-07-29T13:43:50.978Z,27.44
2022-07-29T13:48:53.282Z,27.63
2022-07-29T13:53:55.550Z,28.11
2022-07-29T13:58:58.229Z,27.88
2022-07-29T14:04:00.723Z,27.39
2022-07-29T14:09:03.867Z,27.97
2022-07-29T14:14:06.398Z,27.38
2022-07-29T14:19:08.762Z,27.32
2022-07-29T14:24:18.069Z,27.89
2022-07-29T14:29:23.968Z,27.31
2022-07-29T14:34:42.136Z,27.26
2022-07-29T14:39:44.413Z,27.71
2022-07-29T14:44:46.736Z,27.44
2022-07-29T14:49:49.161Z,27.60
2022-07-29T14:54:51.275Z,28.20
2022-07-29T14:59:53.313Z,28.11
2022-07-29T15:04:55.720Z,27.97
2022-07-29T15:09:59.802Z,27.73
2022-07-29T15:15:02.293Z,28.13
2022-07-29T15:20:06.474Z,27.85
2022-07-29T15:25:08.944Z,28.02
2022-07-29T15:30:11.880Z,27.86
2022-07-29T15:35:40.368Z,27.21
2022-07-29T15:40:44.535Z,27.02
2022-07-29T15:46:06.572Z,26.62
2022-07-29T15:51:08.750Z,27.19
2022-07-29T15:56:10.906Z,27.71
2022-07-29T16:01:12.946Z,27.94
2022-07-29T16:06:15.039Z,27.51
2022-07-29T16:11:17.362Z,27.69
2022-07-29T16:16:19.493Z,28.56
2022-07-29T16:21:22.937Z,28.28
2022-07-29T16:26:24.970Z,27.78
2022-07-29T16:31:27.352Z,27.61
2022-07-29T16:36:29.426Z,27.44
2022-07-29T16:41:32.001Z,28.26
2022-07-29T16:46:37.304Z,28.33
2022-07-29T16:51:40.976Z,28.39
2022-07-29T16:56:44.686Z,27.30
2022-07-29T17:01:46.923Z,27.10
2022-07-29T17:06:50.618Z,26.78
2022-07-29T17:11:55.161Z,26.22
2022-07-29T17:17:00.984Z,26.01
2022-07-29T17:22:11.625Z,25.74
2022-07-29T17:27:16.455Z,25.47
2022-07-29T17:32:18.466Z,25.32
2022-07-29T17:37:20.490Z,25.18
2022-07-29T17:42:22.691Z,25.09
2022-07-29T17:47:24.961Z,24.83
2022-07-29T17:52:26.920Z,24.69
2022-07-29T17:57:29.147Z,24.63
2022-07-29T18:02:31.162Z,24.27
2022-07-29T18:07:33.838Z,24.06
2022-07-29T18:12:36.170Z,24.11
2022-07-29T18:17:52.992Z,23.99
2022-07-29T18:22:59.704Z,23.81
2022-07-29T18:28:02.369Z,23.72
2022-07-29T18:33:20.665Z,23.45
2022-07-29T18:38:24.139Z,23.26
2022-07-29T18:43:26.799Z,23.06
2022-07-29T18:48:29.626Z,22.90
2022-07-29T18:53:35.999Z,23.02
2022-07-29T18:58:39.399Z,22.92
2022-07-29T19:03:41.412Z,22.65
2022-07-29T19:08:43.462Z,22.61
2022-07-29T19:13:45.837Z,22.44
2022-07-29T19:18:47.910Z,22.31
2022-07-29T19:24:05.214Z,22.28
2022-07-29T19:29:09.777Z,22.09
2022-07-29T19:34:11.849Z,21.90
2022-07-29T19:39:15.500Z,22.04
2022-07-29T19:44:17.618Z,21.90
2022-07-29T19:49:24.997Z,21.88
2022-07-29T19:54:27.025Z,21.82
2022-07-29T19:59:29.599Z,21.91
2022-07-29T20:04:32.467Z,21.88
2022-07-29T20:09:36.588Z,21.87
2022-07-29T20:14:39.094Z,21.89
2022-07-29T20:19:42.703Z,21.69
2022-07-29T20:24:46.914Z,21.72
2022-07-29T20:29:49.044Z,21.78
2022-07-29T20:34:53.703Z,21.63
2022-07-29T20:39:57.613Z,21.61
2022-07-29T20:44:59.928Z,21.82
2022-07-29T20:50:02.479Z,21.72
2022-07-29T20:55:04.952Z,21.61
2022-07-29T21:00:08.681Z,21.48
2022-07-29T21:05:11.050Z,21.20
2022-07-29T21:10:14.453Z,21.14
2022-07-29T21:15:17.557Z,20.90
2022-07-29T21:20:19.891Z,20.92
2022-07-29T21:25:22.913Z,20.79
2022-07-29T21:30:25.424Z,20.63
2022-07-29T21:36:01.977Z,20.41
2022-07-29T21:40:52.287Z,20.33
2022-07-29T21:45:54.957Z,20.43
2022-07-29T21:50:57.145Z,20.41
2022-07-29T21:56:00.635Z,20.28
2022-07-29T22:01:03.257Z,20.48
2022-07-29T22:06:05.438Z,20.46
2022-07-29T22:11:07.928Z,20.33
2022-07-29T22:16:14.771Z,20.48
2022-07-29T22:21:16.825Z,20.36
2022-07-29T22:26:19.429Z,20.22
2022-07-29T22:31:21.696Z,20.56
2022-07-29T22:36:23.731Z,20.58
2022-07-29T22:41:25.949Z,20.45
2022-07-29T22:46:28.252Z,20.61
2022-07-29T22:51:30.902Z,20.42
2022-07-29T22:56:33.113Z,20.64
2022-07-29T23:01:37.616Z,20.49
2022-07-29T23:06:40.378Z,20.61
2022-07-29T23:11:42.589Z,20.66
2022-07-29T23:16:45.060Z,20.78
2022-07-29T23:21:47.129Z,20.71
2022-07-29T23:26:49.212Z,20.77
2022-07-29T23:31:53.469Z,20.85
2022-07-29T23:36:55.698Z,21.07
2022-07-29T23:41:57.865Z,20.98
2022-07-29T23:47:00.285Z,20.95
2022-07-29T23:52:02.602Z,20.92
2022-07-29T23:57:04.609Z,21.13
